Time;durP1;ratioP1;P1;durP2;ratioP2;P2;SDS_P1;SDS_P2;PMS_P1;PMS_P2;Temp;Humidity;BMP_temperature;BMP_pressure;BME280_temperature;BME280_humidity;BME280_pressure;Samples;Min_cycle;Max_cycle;Signal;HPM_P1;HPM_P2
2022/04/23 00:00:10;;;;;;;24.73;14.82;;;9.70;99.90;;;;;;5070475;28;20028;-81
2022/04/23 00:02:39;;;;;;;20.00;14.20;;;9.60;99.90;;;;;;5054073;28;20047;-81
2022/04/23 00:05:05;;;;;;;21.75;14.35;;;9.60;99.90;;;;;;5054724;28;20464;-81
2022/04/23 00:07:30;;;;;;;22.83;14.43;;;9.60;99.90;;;;;;5071545;28;20024;-81
2022/04/23 00:09:59;;;;;;;27.27;15.95;;;9.60;99.90;;;;;;5071103;28;20112;-81
2022/04/23 00:12:25;;;;;;;24.88;15.38;;;9.60;99.90;;;;;;5070818;28;20470;-81
2022/04/23 00:14:50;;;;;;;28.30;15.52;;;9.60;99.90;;;;;;5070867;28;20028;-81
2022/04/23 00:17:18;;;;;;;25.88;14.65;;;9.60;99.90;;;;;;5072889;28;20077;-81
2022/04/23 00:19:46;;;;;;;22.85;14.68;;;9.60;99.90;;;;;;5072200;28;20027;-81
2022/04/23 00:22:15;;;;;;;24.85;15.20;;;9.60;99.90;;;;;;5068334;28;20112;-81
2022/04/23 00:24:41;;;;;;;25.10;15.10;;;9.60;99.90;;;;;;5070604;28;20181;-81
2022/04/23 00:27:07;;;;;;;25.58;15.50;;;9.60;99.90;;;;;;5054815;28;20119;-81
2022/04/23 00:29:35;;;;;;;22.95;14.50;;;9.60;99.90;;;;;;5053837;28;20021;-81
2022/04/23 00:32:02;;;;;;;24.75;15.27;;;9.60;99.90;;;;;;5072888;28;20025;-82
2022/04/23 00:34:28;;;;;;;27.85;16.45;;;9.50;99.90;;;;;;5040488;28;20049;-81
2022/04/23 00:37:00;;;;;;;22.42;15.65;;;9.50;99.90;;;;;;5047561;28;20025;-81
2022/04/23 00:39:26;;;;;;;25.52;15.48;;;9.50;99.90;;;;;;5040319;28;20032;-81
2022/04/23 00:41:52;;;;;;;24.08;15.98;;;9.50;99.90;;;;;;5051972;28;20021;-81
2022/04/23 00:44:18;;;;;;;27.17;15.55;;;9.50;99.90;;;;;;5046782;28;20036;-81
2022/04/23 00:46:45;;;;;;;26.02;16.02;;;9.50;99.90;;;;;;5040884;28;20032;-81
2022/04/23 00:49:11;;;;;;;25.83;16.58;;;9.50;99.90;;;;;;5045364;28;20020;-81
2022/04/23 00:51:39;;;;;;;25.10;15.00;;;9.40;99.90;;;;;;5051943;28;20056;-81
2022/04/23 00:54:07;;;;;;;29.50;17.60;;;9.50;99.90;;;;;;5049679;28;20021;-81
2022/04/23 00:56:34;;;;;;;30.67;17.52;;;9.40;99.90;;;;;;5049386;28;20373;-81
2022/04/23 00:59:05;;;;;;;25.73;16.10;;;9.50;99.90;;;;;;5044219;28;20028;-81
2022/04/23 01:01:30;;;;;;;24.17;15.70;;;9.50;99.90;;;;;;5050066;28;20129;-81
2022/04/23 01:04:02;;;;;;;25.08;15.70;;;9.40;99.90;;;;;;5050048;28;20103;-80
2022/04/23 01:06:33;;;;;;;24.85;16.83;;;9.50;99.90;;;;;;5041931;28;20478;-81
2022/04/23 01:09:03;;;;;;;23.05;15.45;;;9.50;99.90;;;;;;5050450;28;20033;-81
2022/04/23 01:11:29;;;;;;;21.98;15.48;;;9.40;99.90;;;;;;5042516;28;20045;-81
2022/04/23 01:13:55;;;;;;;26.23;15.85;;;9.40;99.90;;;;;;5035489;28;20029;-81
2022/04/23 01:16:20;;;;;;;23.13;15.90;;;9.40;99.90;;;;;;5046834;28;20052;-81
2022/04/23 01:18:46;;;;;;;26.60;16.50;;;9.40;99.90;;;;;;5054562;28;20502;-81
2022/04/23 01:21:13;;;;;;;24.08;15.77;;;9.40;99.90;;;;;;5048747;28;20075;-81
2022/04/23 01:23:42;;;;;;;24.83;15.48;;;9.40;99.90;;;;;;5043177;28;20028;-81
2022/04/23 01:26:22;;;;;;;24.17;15.95;;;9.30;99.90;;;;;;5055854;28;20013;-81
2022/04/23 01:28:48;;;;;;;24.52;15.82;;;9.30;99.90;;;;;;5055235;28;20029;-81
2022/04/23 01:31:14;;;;;;;23.13;15.90;;;9.30;99.90;;;;;;5055945;28;20024;-81
2022/04/23 01:33:40;;;;;;;26.35;17.13;;;9.30;99.90;;;;;;5056230;28;20079;-81
2022/04/23 01:36:05;;;;;;;27.63;16.73;;;9.30;99.90;;;;;;5060187;28;20380;-81
2022/04/23 01:38:31;;;;;;;26.52;16.85;;;9.30;99.90;;;;;;5075549;28;20052;-82
2022/04/23 01:40:56;;;;;;;26.60;17.42;;;9.30;99.90;;;;;;5075506;28;20024;-82
2022/04/23 01:43:22;;;;;;;25.17;15.90;;;9.30;99.90;;;;;;5074816;28;20376;-81
2022/04/23 01:45:47;;;;;;;25.75;16.65;;;9.30;99.90;;;;;;5070824;28;20032;-81
2022/04/23 01:48:13;;;;;;;27.95;16.30;;;9.30;99.90;;;;;;5073891;28;20025;-81
2022/04/23 01:50:38;;;;;;;27.52;16.25;;;9.30;99.90;;;;;;5056087;28;20023;-81
2022/04/23 01:53:05;;;;;;;28.80;17.55;;;9.20;99.90;;;;;;5075327;28;20107;-81
2022/04/23 01:55:31;;;;;;;25.00;16.30;;;9.30;99.90;;;;;;5054911;28;20093;-82
2022/04/23 01:57:57;;;;;;;25.35;16.13;;;9.30;99.90;;;;;;5057524;28;20025;-82
2022/04/23 02:00:22;;;;;;;26.98;16.40;;;9.20;99.90;;;;;;5074777;28;20028;-82
2022/04/23 02:02:48;;;;;;;26.70;16.42;;;9.20;99.90;;;;;;5073706;28;20035;-82
2022/04/23 02:05:14;;;;;;;27.05;16.45;;;9.20;99.90;;;;;;5056219;28;20025;-81
2022/04/23 02:07:41;;;;;;;25.85;17.33;;;9.20;99.90;;;;;;5072501;28;20032;-81
2022/04/23 02:10:08;;;;;;;27.52;16.73;;;9.20;99.90;;;;;;5044291;28;20021;-81
2022/04/23 02:12:38;;;;;;;29.08;17.63;;;9.10;99.90;;;;;;5073056;28;20112;-81
2022/04/23 02:15:07;;;;;;;29.67;18.30;;;9.10;99.90;;;;;;5052330;28;20055;-82
2022/04/23 02:17:37;;;;;;;27.98;16.88;;;9.10;99.90;;;;;;5075541;28;20369;-82
2022/04/23 02:20:10;;;;;;;31.15;16.30;;;9.00;99.90;;;;;;5068453;28;20032;-81
2022/04/23 02:22:37;;;;;;;27.40;16.35;;;9.00;99.90;;;;;;5068143;28;20103;-81
2022/04/23 02:25:05;;;;;;;29.13;16.20;;;8.90;99.90;;;;;;5055886;28;20346;-82
2022/04/23 02:27:46;;;;;;;33.90;17.42;;;9.00;99.90;;;;;;5075192;28;20421;-81
2022/04/23 02:30:13;;;;;;;26.65;16.30;;;8.90;99.90;;;;;;5052817;28;20033;-81
2022/04/23 02:32:41;;;;;;;24.40;15.73;;;8.90;99.90;;;;;;5068739;28;20072;-81
2022/04/23 02:35:07;;;;;;;27.02;15.80;;;8.80;99.90;;;;;;5069412;28;20044;-81
2022/04/23 02:37:36;;;;;;;28.27;15.52;;;8.80;99.90;;;;;;5048132;28;20078;-82
2022/04/23 02:40:07;;;;;;;26.02;16.20;;;8.80;99.90;;;;;;5073859;28;20078;-81
2022/04/23 02:42:33;;;;;;;22.63;15.35;;;8.70;99.90;;;;;;5073916;28;20035;-81
2022/04/23 02:45:01;;;;;;;21.52;13.65;;;8.60;99.90;;;;;;5074641;28;20313;-81
2022/04/23 02:47:28;;;;;;;26.40;15.07;;;8.60;99.90;;;;;;5074115;28;20024;-81
2022/04/23 02:49:54;;;;;;;25.05;15.20;;;8.50;99.90;;;;;;5067009;28;20029;-81
2022/04/23 02:52:20;;;;;;;23.73;15.00;;;8.40;99.90;;;;;;5072296;28;20032;-81
2022/04/23 02:54:45;;;;;;;20.55;14.07;;;8.40;99.90;;;;;;5055714;28;20480;-81
2022/04/23 02:57:11;;;;;;;22.73;14.07;;;8.40;99.90;;;;;;5055832;28;20077;-81
2022/04/23 02:59:37;;;;;;;19.05;13.13;;;8.20;99.90;;;;;;5073574;28;20033;-81
2022/04/23 03:02:03;;;;;;;22.38;14.77;;;8.20;99.90;;;;;;5057283;28;20162;-81
2022/04/23 03:04:30;;;;;;;26.60;15.75;;;8.10;99.90;;;;;;5053293;28;20472;-81
2022/04/23 03:06:56;;;;;;;26.33;14.05;;;8.10;99.90;;;;;;5054269;28;20028;-81
2022/04/23 03:09:22;;;;;;;24.75;14.90;;;8.00;99.90;;;;;;5072280;28;20043;-81
2022/04/23 03:11:48;;;;;;;20.10;13.90;;;7.90;99.90;;;;;;5071501;28;20471;-81
2022/04/23 03:14:13;;;;;;;20.52;14.75;;;7.70;99.90;;;;;;5073512;28;20029;-81
2022/04/23 03:16:39;;;;;;;23.92;14.57;;;7.70;99.90;;;;;;5054980;28;20552;-81
2022/04/23 03:19:04;;;;;;;22.60;14.63;;;7.60;99.90;;;;;;5072997;28;20488;-81
2022/04/23 03:21:30;;;;;;;19.85;13.18;;;7.50;99.90;;;;;;5064443;28;20473;-82
2022/04/23 03:23:56;;;;;;;21.73;14.18;;;7.40;99.90;;;;;;5055183;28;20029;-81
2022/04/23 03:26:22;;;;;;;20.73;14.90;;;7.30;99.90;;;;;;5072248;28;20024;-81
2022/04/23 03:28:47;;;;;;;21.98;14.15;;;7.30;99.90;;;;;;5061511;28;20082;-81
2022/04/23 03:31:13;;;;;;;20.92;14.38;;;7.20;99.90;;;;;;5069658;28;20082;-81
2022/04/23 03:33:39;;;;;;;24.20;14.85;;;7.10;99.90;;;;;;5053085;28;20082;-81
2022/04/23 03:36:05;;;;;;;23.50;14.13;;;7.10;99.90;;;;;;5067921;28;20790;-81
2022/04/23 03:38:31;;;;;;;23.48;16.27;;;6.90;99.90;;;;;;5072671;28;20078;-80
2022/04/23 03:40:56;;;;;;;22.30;15.40;;;6.90;99.90;;;;;;5064153;28;20060;-81
2022/04/23 03:43:25;;;;;;;26.40;16.88;;;6.90;99.90;;;;;;5049088;28;20060;-81
2022/04/23 03:45:54;;;;;;;21.88;15.02;;;6.90;99.90;;;;;;5049046;28;20091;-81
2022/04/23 03:48:19;;;;;;;20.85;14.23;;;7.00;99.90;;;;;;5066363;28;20024;-81
2022/04/23 03:50:47;;;;;;;24.90;15.02;;;7.00;99.90;;;;;;5069980;28;20062;-81
2022/04/23 03:53:14;;;;;;;21.98;15.15;;;7.00;99.90;;;;;;5071443;28;20048;-81
2022/04/23 03:55:39;;;;;;;19.60;13.82;;;7.10;99.90;;;;;;5064236;28;20032;-81
2022/04/23 03:58:12;;;;;;;20.55;14.63;;;7.00;99.90;;;;;;5096183;27;20138;-79
2022/04/23 04:00:37;;;;;;;22.58;15.02;;;7.10;99.90;;;;;;5086588;28;20523;-80
2022/04/23 04:03:02;;;;;;;23.27;16.13;;;7.00;99.90;;;;;;5087670;28;20150;-81
2022/04/23 04:05:31;;;;;;;27.92;16.33;;;7.00;99.90;;;;;;5074845;28;20468;-81
2022/04/23 04:07:56;;;;;;;20.75;13.80;;;7.00;99.90;;;;;;5071302;28;20021;-81
2022/04/23 04:10:23;;;;;;;19.58;14.13;;;7.00;99.90;;;;;;5090472;28;20035;-81
2022/04/23 04:12:50;;;;;;;24.50;14.73;;;7.10;99.90;;;;;;5081606;28;20145;-81
2022/04/23 04:15:16;;;;;;;17.08;12.93;;;7.00;99.90;;;;;;5081968;28;20081;-81
2022/04/23 04:17:47;;;;;;;21.13;14.38;;;7.10;99.90;;;;;;5081583;28;20033;-81
2022/04/23 04:20:15;;;;;;;19.17;14.43;;;7.10;99.90;;;;;;5085926;28;20026;-81
2022/04/23 04:22:42;;;;;;;19.05;14.85;;;7.20;99.90;;;;;;5073296;28;20107;-81
2022/04/23 04:25:09;;;;;;;25.70;16.40;;;7.20;99.90;;;;;;5073010;28;20029;-81
2022/04/23 04:27:37;;;;;;;20.98;14.85;;;7.20;99.90;;;;;;5075050;28;20024;-81
2022/04/23 04:30:04;;;;;;;19.88;15.00;;;7.20;99.90;;;;;;5086031;28;20494;-81
2022/04/23 04:32:30;;;;;;;20.58;14.45;;;7.20;99.90;;;;;;5077638;28;20107;-81
2022/04/23 04:34:56;;;;;;;27.48;18.67;;;7.20;99.90;;;;;;5079626;28;20427;-81
2022/04/23 04:37:21;;;;;;;28.00;18.40;;;7.30;99.90;;;;;;5088853;28;20419;-81
2022/04/23 04:39:47;;;;;;;22.98;16.88;;;7.30;99.90;;;;;;5082471;28;20384;-81
2022/04/23 04:42:12;;;;;;;23.27;16.60;;;7.40;99.90;;;;;;5083929;28;20121;-81
2022/04/23 04:44:38;;;;;;;24.98;16.52;;;7.40;99.90;;;;;;5081986;28;20454;-81
2022/04/23 04:47:05;;;;;;;27.48;19.17;;;7.40;99.90;;;;;;5069788;28;20126;-81
2022/04/23 04:49:30;;;;;;;28.83;17.98;;;7.50;99.90;;;;;;5074130;28;20029;-81
2022/04/23 04:51:56;;;;;;;29.65;18.67;;;7.50;99.90;;;;;;5078555;28;20116;-81
2022/04/23 04:54:22;;;;;;;31.88;17.33;;;7.50;99.90;;;;;;5073598;28;20039;-81
2022/04/23 04:56:51;;;;;;;21.10;16.35;;;7.50;99.90;;;;;;5079926;28;20045;-81
2022/04/23 04:59:17;;;;;;;22.20;16.33;;;7.50;99.90;;;;;;5081503;28;20016;-81
2022/04/23 05:01:43;;;;;;;25.70;18.48;;;7.50;99.90;;;;;;5084689;28;20081;-82
2022/04/23 05:04:09;;;;;;;25.40;17.65;;;7.50;99.90;;;;;;5074197;28;20016;-81
2022/04/23 05:06:35;;;;;;;24.25;17.38;;;7.50;99.90;;;;;;5069309;28;20503;-81
2022/04/23 05:09:01;;;;;;;23.75;17.75;;;7.50;99.90;;;;;;5059394;28;20033;-81
2022/04/23 05:11:27;;;;;;;26.13;18.25;;;7.60;99.90;;;;;;5065761;28;20024;-81
2022/04/23 05:13:53;;;;;;;30.17;19.63;;;7.60;99.90;;;;;;5074555;28;20032;-81
2022/04/23 05:16:18;;;;;;;24.27;17.42;;;7.70;99.90;;;;;;5064732;28;20024;-82
2022/04/23 05:18:45;;;;;;;28.27;17.92;;;7.70;99.90;;;;;;5061279;28;20039;-81
2022/04/23 05:21:11;;;;;;;25.48;18.27;;;7.70;99.90;;;;;;5070820;28;20037;-81
2022/04/23 05:23:38;;;;;;;28.20;18.80;;;7.80;99.90;;;;;;5072029;28;20078;-81
2022/04/23 05:26:04;;;;;;;23.55;17.77;;;7.70;99.90;;;;;;5062480;28;20048;-81
2022/04/23 05:28:30;;;;;;;26.38;19.73;;;7.70;99.90;;;;;;5067007;28;20021;-81
2022/04/23 05:30:56;;;;;;;28.60;19.02;;;7.70;99.90;;;;;;5061280;28;20028;-81
2022/04/23 05:33:22;;;;;;;42.17;25.35;;;7.70;99.90;;;;;;5069929;28;20457;-81
2022/04/23 05:35:47;;;;;;;42.28;27.73;;;7.70;99.90;;;;;;5068365;28;20473;-81
2022/04/23 05:38:13;;;;;;;36.38;24.33;;;7.80;99.90;;;;;;5070118;28;20376;-81
2022/04/23 05:40:38;;;;;;;36.28;23.25;;;7.80;99.90;;;;;;5072602;28;20029;-81
2022/04/23 05:43:04;;;;;;;37.38;22.35;;;7.70;99.90;;;;;;5059296;28;20039;-81
2022/04/23 05:45:30;;;;;;;30.15;19.65;;;7.80;99.90;;;;;;5062263;28;20087;-81
2022/04/23 05:47:58;;;;;;;27.42;20.73;;;7.80;99.90;;;;;;5063105;28;20029;-81
2022/04/23 05:50:23;;;;;;;25.27;18.65;;;7.80;99.90;;;;;;5066766;28;20020;-81
2022/04/23 05:52:50;;;;;;;29.00;19.17;;;7.80;99.90;;;;;;5065277;28;20384;-81
2022/04/23 05:55:16;;;;;;;27.40;18.83;;;7.80;99.90;;;;;;5063822;28;20515;-81
2022/04/23 05:57:41;;;;;;;26.45;19.02;;;7.90;99.90;;;;;;5064391;28;20040;-81
2022/04/23 06:00:09;;;;;;;30.23;20.92;;;7.80;99.90;;;;;;5062883;28;20173;-81
2022/04/23 06:02:35;;;;;;;33.75;21.45;;;7.80;99.90;;;;;;5057632;28;20021;-81
2022/04/23 06:05:02;;;;;;;26.60;19.95;;;7.80;99.90;;;;;;5062403;28;20489;-82
2022/04/23 06:07:27;;;;;;;22.25;17.23;;;7.90;99.90;;;;;;5063836;28;20627;-81
2022/04/23 06:09:53;;;;;;;30.95;19.05;;;7.90;99.90;;;;;;5066063;28;20123;-81
2022/04/23 06:12:19;;;;;;;24.35;17.65;;;7.90;99.90;;;;;;5064702;28;20021;-82
2022/04/23 06:14:44;;;;;;;27.38;17.83;;;8.00;99.90;;;;;;5061289;28;20025;-82
2022/04/23 06:17:12;;;;;;;33.85;20.35;;;8.00;99.90;;;;;;5058899;28;20036;-82
2022/04/23 06:19:39;;;;;;;27.50;17.73;;;8.00;99.90;;;;;;5061491;28;20381;-82
2022/04/23 06:22:05;;;;;;;26.02;19.50;;;8.00;99.90;;;;;;5064220;28;20029;-82
2022/04/23 06:24:31;;;;;;;25.13;19.35;;;8.00;99.90;;;;;;5056995;28;20162;-82
2022/04/23 06:26:57;;;;;;;30.02;20.58;;;8.10;99.90;;;;;;5062207;28;21832;-82
2022/04/23 06:29:22;;;;;;;30.25;22.02;;;8.10;99.90;;;;;;5064520;28;20377;-82
2022/04/23 06:31:48;;;;;;;27.48;20.38;;;8.10;99.90;;;;;;5071432;28;20472;-82
2022/04/23 06:34:17;;;;;;;30.73;21.60;;;8.20;99.90;;;;;;5059710;28;20047;-82
2022/04/23 06:36:42;;;;;;;34.58;21.50;;;8.20;99.90;;;;;;5064354;28;20035;-81
2022/04/23 06:39:08;;;;;;;31.77;21.00;;;8.30;99.90;;;;;;5061076;28;20021;-82
2022/04/23 06:41:34;;;;;;;29.75;20.73;;;8.30;99.90;;;;;;5053756;28;20036;-82
2022/04/23 06:44:00;;;;;;;25.58;19.67;;;8.30;99.90;;;;;;5057641;28;20389;-82
2022/04/23 06:46:27;;;;;;;31.08;20.98;;;8.30;99.90;;;;;;5055866;28;20039;-81
2022/04/23 06:48:52;;;;;;;35.00;22.20;;;8.30;99.90;;;;;;5059668;28;20040;-82
2022/04/23 06:51:18;;;;;;;27.30;21.02;;;8.40;99.90;;;;;;5069560;28;20420;-82
2022/04/23 06:53:44;;;;;;;30.52;21.08;;;8.40;99.90;;;;;;5055650;28;20368;-81
2022/04/23 06:56:10;;;;;;;30.95;21.55;;;8.50;99.90;;;;;;5070804;28;20098;-82
2022/04/23 06:58:36;;;;;;;28.05;19.85;;;8.50;99.90;;;;;;5066927;28;20415;-82
2022/04/23 07:01:04;;;;;;;27.30;20.50;;;8.60;99.90;;;;;;5061168;28;20033;-81
2022/04/23 07:03:30;;;;;;;27.20;20.40;;;8.70;99.90;;;;;;5065032;28;20110;-81
2022/04/23 07:05:56;;;;;;;27.08;19.40;;;8.70;99.90;;;;;;5066162;28;20499;-82
2022/04/23 07:08:21;;;;;;;30.63;19.63;;;8.70;99.90;;;;;;5058165;28;20021;-81
2022/04/23 07:10:48;;;;;;;29.80;20.45;;;8.80;99.90;;;;;;5061991;28;20035;-81
2022/04/23 07:13:15;;;;;;;27.35;20.42;;;8.80;99.90;;;;;;5062567;28;20487;-81
2022/04/23 07:15:41;;;;;;;32.10;19.33;;;8.90;99.90;;;;;;5058112;28;20024;-81
2022/04/23 07:18:08;;;;;;;29.10;20.05;;;8.90;99.90;;;;;;5059231;28;20040;-82
2022/04/23 07:20:34;;;;;;;25.80;18.70;;;9.00;99.90;;;;;;5063460;28;20021;-82
2022/04/23 07:25:57;;;;;;;22.00;17.02;;;9.00;99.90;;;;;;5060090;28;20076;-82
2022/04/23 07:28:24;;;;;;;27.88;18.23;;;9.10;99.90;;;;;;5053587;28;20473;-82
2022/04/23 07:30:50;;;;;;;23.55;17.20;;;9.10;99.90;;;;;;5071487;28;20016;-81
2022/04/23 07:38:44;;;;;;;24.88;17.25;;;9.30;99.90;;;;;;5063109;28;20027;-82
2022/04/23 07:41:11;;;;;;;19.27;14.55;;;9.30;99.90;;;;;;5060918;28;20028;-81
2022/04/23 07:43:37;;;;;;;28.52;16.00;;;9.40;99.90;;;;;;5057159;28;20366;-82
2022/04/23 07:46:03;;;;;;;24.23;15.00;;;9.40;99.90;;;;;;5055158;28;20078;-82
2022/04/23 07:48:28;;;;;;;22.80;15.90;;;9.50;99.90;;;;;;5058800;28;20033;-81
2022/04/23 07:50:54;;;;;;;21.80;15.10;;;9.50;99.90;;;;;;5064892;28;20028;-81
2022/04/23 07:53:20;;;;;;;24.40;15.10;;;9.50;99.90;;;;;;5052274;28;20418;-82
2022/04/23 07:55:45;;;;;;;19.77;13.90;;;9.60;99.90;;;;;;5055994;28;20029;-81
2022/04/23 07:58:11;;;;;;;23.63;13.70;;;9.60;99.90;;;;;;5056739;28;20555;-82
2022/04/23 08:00:38;;;;;;;18.92;13.88;;;9.70;99.90;;;;;;5061148;28;20017;-82
2022/04/23 08:03:05;;;;;;;22.45;14.52;;;9.70;99.90;;;;;;5061719;28;20040;-82
2022/04/23 08:05:31;;;;;;;20.13;13.10;;;9.80;99.90;;;;;;5063438;28;20021;-82
2022/04/23 08:07:58;;;;;;;17.60;12.23;;;9.80;99.90;;;;;;5064742;28;20081;-81
2022/04/23 08:10:24;;;;;;;16.48;10.63;;;9.90;99.90;;;;;;5051060;28;20033;-82
2022/04/23 08:12:49;;;;;;;18.75;11.27;;;10.00;99.90;;;;;;5053978;28;20024;-83
2022/04/23 08:15:15;;;;;;;17.58;11.63;;;10.10;99.90;;;;;;5070569;28;20409;-82
2022/04/23 08:17:41;;;;;;;15.00;10.93;;;10.10;99.90;;;;;;5071602;28;20039;-82
2022/04/23 08:20:08;;;;;;;16.70;10.80;;;10.20;99.90;;;;;;5072109;28;20021;-82
2022/04/23 08:22:37;;;;;;;19.20;10.98;;;10.10;99.90;;;;;;5059979;28;20025;-81
2022/04/23 08:25:03;;;;;;;14.00;10.95;;;10.20;99.90;;;;;;5063248;28;20025;-81
2022/04/23 08:27:29;;;;;;;16.75;10.80;;;10.20;99.90;;;;;;5070745;28;20070;-81
2022/04/23 08:32:39;;;;;;;18.77;11.40;;;10.30;99.90;;;;;;5066869;28;20035;-81
2022/04/23 08:35:06;;;;;;;19.77;11.30;;;10.30;99.90;;;;;;5053937;28;20405;-82
2022/04/23 08:37:33;;;;;;;17.10;11.70;;;10.30;99.90;;;;;;5050968;28;20037;-82
2022/04/23 08:39:59;;;;;;;16.88;11.05;;;10.40;99.90;;;;;;5052250;28;20017;-81
2022/04/23 08:42:26;;;;;;;18.95;11.82;;;10.40;99.90;;;;;;5057779;28;20025;-82
2022/04/23 08:44:54;;;;;;;17.05;11.35;;;10.50;99.90;;;;;;5068271;28;20021;-81
2022/04/23 08:47:25;;;;;;;20.90;10.95;;;10.50;99.90;;;;;;5059911;28;20124;-82
2022/04/23 08:49:58;;;;;;;15.50;10.93;;;10.60;99.90;;;;;;5062039;28;20036;-82
2022/04/23 08:52:32;;;;;;;15.95;10.43;;;10.60;99.90;;;;;;5063722;28;20422;-82
2022/04/23 08:54:59;;;;;;;17.70;10.38;;;10.70;99.90;;;;;;5068609;28;20025;-81
2022/04/23 08:57:25;;;;;;;14.10;10.23;;;10.70;99.90;;;;;;5059640;28;20039;-81
2022/04/23 08:59:56;;;;;;;13.40;9.90;;;10.80;99.90;;;;;;5062676;28;20028;-81
2022/04/23 09:02:23;;;;;;;19.08;9.82;;;10.80;99.90;;;;;;5069197;28;20035;-82
2022/04/23 09:04:50;;;;;;;13.40;9.40;;;10.90;99.90;;;;;;5071803;28;20028;-82
2022/04/23 09:07:21;;;;;;;18.17;11.18;;;10.90;99.90;;;;;;5065565;28;20039;-82
2022/04/23 09:09:48;;;;;;;15.50;10.10;;;11.00;99.90;;;;;;5062100;28;20029;-82
2022/04/23 09:12:14;;;;;;;16.88;9.75;;;11.00;99.90;;;;;;5069028;28;20025;-82
2022/04/23 09:14:41;;;;;;;14.25;9.82;;;11.00;99.90;;;;;;5068753;28;20035;-81
2022/04/23 09:23:39;;;;;;;10.98;4.70;;;11.10;99.90;;;;;;5062160;28;20440;-82
2022/04/23 09:25:45;;;;;;;6.05;4.15;;;11.40;99.90;;;;;;5069669;28;20024;-82
2022/04/23 09:28:18;;;;;;;7.90;4.50;;;11.40;99.90;;;;;;5068319;28;20024;-82
2022/04/23 09:30:46;;;;;;;7.43;5.18;;;11.50;99.90;;;;;;5073811;28;20119;-82
2022/04/23 09:33:12;;;;;;;8.20;4.75;;;11.50;99.90;;;;;;5066713;28;20025;-81
2022/04/23 09:36:04;;;;;;;9.95;6.18;;;11.50;99.90;;;;;;5071097;28;20111;-81
2022/04/23 09:38:30;;;;;;;12.27;5.28;;;11.60;99.90;;;;;;5073677;28;20106;-82
2022/04/23 09:41:15;;;;;;;9.68;4.97;;;11.70;99.90;;;;;;5062064;28;20020;-82
2022/04/23 09:43:42;;;;;;;12.90;6.35;;;11.80;99.90;;;;;;5059055;28;20017;-82
2022/04/23 09:46:09;;;;;;;11.70;5.60;;;11.90;99.90;;;;;;5061967;28;20040;-82
2022/04/23 09:48:38;;;;;;;7.68;5.43;;;12.00;99.90;;;;;;5054899;28;20361;-82
2022/04/23 09:51:06;;;;;;;8.57;6.50;;;12.00;99.90;;;;;;5071583;28;20107;-82
2022/04/23 09:53:33;;;;;;;11.73;6.55;;;11.90;99.90;;;;;;5071630;28;20094;-79
2022/04/23 09:56:00;;;;;;;8.40;6.60;;;12.00;99.90;;;;;;5068542;28;20021;-82
2022/04/23 09:58:29;;;;;;;10.75;5.88;;;12.20;99.90;;;;;;5069165;28;20468;-81
2022/04/23 10:00:57;;;;;;;8.43;5.80;;;12.10;99.90;;;;;;5057287;28;20031;-82
2022/04/23 10:03:31;;;;;;;9.02;5.88;;;12.20;99.90;;;;;;5060360;28;20035;-82
2022/04/23 10:05:58;;;;;;;14.70;6.78;;;12.20;99.90;;;;;;5065008;28;20091;-82
2022/04/23 10:08:30;;;;;;;11.57;7.40;;;12.20;99.90;;;;;;5066369;28;20524;-82
2022/04/23 10:11:02;;;;;;;9.88;6.35;;;12.20;99.90;;;;;;5059838;28;20029;-82
2022/04/23 10:13:33;;;;;;;10.88;7.05;;;12.30;99.90;;;;;;5064863;28;20075;-82
2022/04/23 10:16:01;;;;;;;10.10;6.93;;;12.30;99.90;;;;;;5061962;28;20024;-81
2022/04/23 10:18:27;;;;;;;7.65;6.18;;;12.30;99.90;;;;;;5065155;28;20108;-83
2022/04/23 10:20:57;;;;;;;7.45;5.53;;;12.40;99.90;;;;;;5061359;28;20103;-82
2022/04/23 10:23:43;;;;;;;7.70;5.93;;;12.50;99.90;;;;;;5067929;28;20033;-82
2022/04/23 10:26:34;;;;;;;11.68;6.32;;;12.60;99.90;;;;;;5054339;28;20104;-82
2022/04/23 10:29:01;;;;;;;8.85;6.18;;;12.70;99.90;;;;;;5069881;28;20100;-82
2022/04/23 10:31:28;;;;;;;8.68;6.70;;;12.70;99.90;;;;;;5058561;28;20032;-85
2022/04/23 10:33:53;;;;;;;12.57;6.63;;;12.70;99.90;;;;;;5060031;28;20091;-85
2022/04/23 10:36:25;;;;;;;10.18;7.15;;;12.70;99.90;;;;;;5066693;28;20020;-88
2022/04/23 10:39:24;;;;;;;15.50;8.05;;;12.70;99.90;;;;;;5070711;28;20043;-86
2022/04/23 10:41:52;;;;;;;13.38;7.38;;;12.70;99.90;;;;;;5073517;28;20099;-86
2022/04/23 10:44:21;;;;;;;9.98;6.82;;;12.80;99.90;;;;;;5072911;28;20545;-85
2022/04/23 10:46:51;;;;;;;10.50;6.65;;;12.90;99.90;;;;;;5069918;28;20033;-84
2022/04/23 10:49:22;;;;;;;8.10;6.75;;;12.90;99.90;;;;;;5072892;28;20020;-83
2022/04/23 10:52:07;;;;;;;12.43;7.50;;;12.90;99.90;;;;;;5068783;28;20056;-85
2022/04/23 10:54:47;;;;;;;11.55;7.38;;;13.00;99.90;;;;;;5062712;28;20032;-85
2022/04/23 10:57:15;;;;;;;9.32;7.07;;;13.00;99.90;;;;;;5053330;28;20041;-83
2022/04/23 10:59:47;;;;;;;19.55;7.82;;;13.10;99.90;;;;;;5070933;28;20023;-84
2022/04/23 11:02:23;;;;;;;14.32;7.38;;;13.10;99.90;;;;;;5060813;28;20031;-84
2022/04/23 11:13:31;;;;;;;9.57;7.57;;;13.30;99.90;;;;;;5057911;28;20143;-84
2022/04/23 11:16:16;;;;;;;12.40;8.73;;;13.40;99.90;;;;;;5060567;28;20366;-84
2022/04/23 11:18:53;;;;;;;10.02;7.55;;;13.50;99.90;;;;;;5059677;28;20668;-84
2022/04/23 11:21:24;;;;;;;10.65;8.02;;;13.50;99.90;;;;;;5053122;28;20503;-86
2022/04/23 11:23:54;;;;;;;9.95;7.80;;;13.60;99.90;;;;;;5064338;28;20020;-85
2022/04/23 11:26:26;;;;;;;12.20;8.25;;;13.60;99.90;;;;;;5068929;28;20082;-84
2022/04/23 11:29:06;;;;;;;9.80;6.80;;;13.60;99.90;;;;;;5053128;28;20082;-85
2022/04/23 11:31:31;;;;;;;10.07;7.32;;;13.60;99.90;;;;;;5069927;28;20038;-86
2022/04/23 11:34:01;;;;;;;10.63;7.75;;;13.70;99.90;;;;;;5069809;28;20068;-85
2022/04/23 11:36:29;;;;;;;11.95;7.60;;;13.70;99.90;;;;;;5056290;28;20040;-85
2022/04/23 11:38:57;;;;;;;10.32;6.75;;;13.70;99.90;;;;;;5069257;28;20060;-85
2022/04/23 11:41:42;;;;;;;8.90;6.32;;;13.90;99.90;;;;;;5072236;28;20028;-86
2022/04/23 11:47:06;;;;;;;12.82;6.97;;;14.00;99.90;;;;;;5072030;28;20044;-86
2022/04/23 11:49:32;;;;;;;6.97;5.43;;;14.10;99.90;;;;;;5071565;28;20028;-85
2022/04/23 11:52:10;;;;;;;8.80;6.40;;;14.20;99.90;;;;;;5066622;28;20105;-86
2022/04/23 11:54:38;;;;;;;7.93;5.32;;;14.20;99.90;;;;;;5070240;28;20384;-86
2022/04/23 11:57:05;;;;;;;7.50;5.90;;;14.20;99.90;;;;;;5069386;28;20036;-86
2022/04/23 11:59:51;;;;;;;9.55;5.10;;;14.20;99.90;;;;;;5067920;28;20469;-86
2022/04/23 12:02:25;;;;;;;9.25;5.43;;;14.30;99.90;;;;;;5086776;28;20024;-86
2022/04/23 12:04:58;;;;;;;8.60;5.90;;;14.40;99.90;;;;;;5051755;28;20028;-85
2022/04/23 12:07:25;;;;;;;7.10;5.50;;;14.40;99.90;;;;;;5068720;28;20029;-88
2022/04/23 12:09:52;;;;;;;8.68;4.38;;;14.40;99.90;;;;;;5072094;28;20020;-88
2022/04/23 12:12:37;;;;;;;5.45;4.22;;;14.40;99.90;;;;;;5058859;28;20025;-88
2022/04/23 12:15:12;;;;;;;6.70;4.95;;;14.50;97.30;;;;;;5071411;28;20060;-88
2022/04/23 12:17:52;;;;;;;6.53;5.03;;;14.50;99.90;;;;;;5070508;28;20028;-87
2022/04/23 12:20:44;;;;;;;6.47;4.75;;;14.60;99.40;;;;;;5064568;28;20032;-88
2022/04/23 12:23:10;;;;;;;6.13;5.28;;;14.70;98.60;;;;;;5076026;28;20048;-88
2022/04/23 12:26:07;;;;;;;7.43;6.00;;;14.80;99.40;;;;;;5071798;28;20067;-86
2022/04/23 12:43:32;;;;;;;5.55;4.30;;;15.10;96.50;;;;;;5064996;28;20388;-88
2022/04/23 12:46:07;;;;;;;7.40;4.65;;;15.10;98.60;;;;;;5075934;28;20484;-87
2022/04/23 12:48:58;;;;;;;4.30;3.80;;;15.20;92.80;;;;;;5071249;28;20081;-87
2022/04/23 12:51:24;;;;;;;14.48;5.30;;;15.30;95.40;;;;;;5058257;28;20090;-86
2022/04/23 12:53:49;;;;;;;7.10;5.15;;;15.30;97.60;;;;;;5070209;28;20025;-87
2022/04/23 12:56:19;;;;;;;5.97;4.82;;;15.30;96.10;;;;;;5068022;28;20033;-87
2022/04/23 12:58:45;;;;;;;6.57;4.03;;;15.30;92.10;;;;;;5085649;28;20095;-87
2022/04/23 13:01:13;;;;;;;7.57;4.72;;;15.30;90.00;;;;;;5060346;28;20029;-87
2022/04/23 13:03:44;;;;;;;5.55;4.32;;;15.40;84.60;;;;;;5072938;28;20146;-90
2022/04/23 13:09:04;;;;;;;8.02;4.80;;;15.50;90.90;;;;;;5066131;28;20044;-88
2022/04/23 13:11:33;;;;;;;7.07;4.53;;;15.40;90.90;;;;;;5061181;28;20491;-88
2022/04/23 13:14:05;;;;;;;6.72;4.28;;;15.40;83.50;;;;;;5055788;28;20021;-88
2022/04/23 13:16:32;;;;;;;6.53;4.25;;;15.40;84.20;;;;;;5063303;28;20039;-88
2022/04/23 13:19:00;;;;;;;5.13;3.95;;;15.40;83.90;;;;;;5063049;28;20057;-88
2022/04/23 13:21:28;;;;;;;4.60;4.07;;;15.40;86.40;;;;;;5071375;28;20028;-90
2022/04/23 13:23:54;;;;;;;6.90;4.65;;;15.40;94.00;;;;;;5063724;28;20052;-86
2022/04/23 13:26:31;;;;;;;6.32;5.35;;;15.50;90.70;;;;;;5071831;28;20067;-85
2022/04/23 13:28:57;;;;;;;6.00;4.25;;;15.60;88.10;;;;;;5072697;28;20029;-85